Time;durP1;ratioP1;P1;durP2;ratioP2;P2;SDS_P1;SDS_P2;PMS_P1;PMS_P2;Temp;Humidity;BMP_temperature;BMP_pressure;BME280_temperature;BME280_humidity;BME280_pressure;Samples;Min_cycle;Max_cycle;Signal;HPM_P1;HPM_P2
2023/10/11 05:58:14;;;;;;;10.20;4.30;;;;;;;;;;4974925;28;20429;-86
2023/10/11 06:00:39;;;;;;;10.35;4.32;;;;;;;;;;4998525;28;20030;-86
2023/10/11 06:03:06;;;;;;;10.70;3.88;;;;;;;;;;4995673;28;20165;-85
2023/10/11 06:05:39;;;;;;;11.18;4.20;;;;;;;;;;4995783;28;20030;-84
2023/10/11 06:08:15;;;;;;;8.80;3.80;;;;;;;;;;4995726;28;20034;-86
2023/10/11 09:46:51;;;;;;;10.73;4.15;;;;;;;;;;5058733;28;20495;-86
2023/10/11 09:49:21;;;;;;;10.45;3.30;;;;;;;;;;5055168;28;20036;-86
2023/10/11 09:51:47;;;;;;;9.70;3.88;;;;;;;;;;5055302;28;20052;-88
2023/10/11 09:54:13;;;;;;;12.63;4.15;;;;;;;;;;5055095;28;20033;-87
2023/10/11 09:57:03;;;;;;;12.35;3.78;;;;;;;;;;5055279;28;20493;-87
2023/10/11 09:59:43;;;;;;;11.52;4.20;;;;;;;;;;5055260;28;20475;-86
2023/10/11 10:02:24;;;;;;;10.63;3.67;;;;;;;;;;5054909;28;20036;-88
2023/10/11 10:04:52;;;;;;;11.07;4.10;;;;;;;;;;5054887;28;20498;-87
2023/10/11 10:07:24;;;;;;;11.40;3.88;;;;;;;;;;5054987;28;20455;-89
2023/10/11 10:09:52;;;;;;;10.07;3.78;;;;;;;;;;5054794;28;20021;-87
2023/10/11 10:12:22;;;;;;;12.05;3.65;;;;;;;;;;5053602;28;20120;-87
2023/10/11 10:15:08;;;;;;;11.80;3.80;;;;;;;;;;5054920;28;20520;-88
2023/10/11 10:17:34;;;;;;;8.98;3.50;;;;;;;;;;5053735;28;20471;-91
2023/10/11 10:20:43;;;;;;;10.30;3.90;;;;;;;;;;5055208;28;20104;-90
2023/10/11 10:23:14;;;;;;;9.02;3.42;;;;;;;;;;5053417;28;20103;-89
2023/10/11 10:25:47;;;;;;;12.45;4.18;;;;;;;;;;5053626;28;20029;-90
2023/10/11 10:28:45;;;;;;;11.88;4.03;;;;;;;;;;5054019;28;20174;-89
2023/10/11 10:31:19;;;;;;;16.60;3.93;;;;;;;;;;5053569;28;20025;-90
2023/10/11 10:34:05;;;;;;;8.43;3.67;;;;;;;;;;5053143;28;20270;-88
2023/10/11 10:36:31;;;;;;;8.70;3.83;;;;;;;;;;5053311;28;20021;-95
2023/10/11 10:42:12;;;;;;;5.55;2.92;;;;;;;;;;5033248;28;20044;-88
2023/10/11 10:44:51;;;;;;;14.27;3.88;;;;;;;;;;5054471;28;20025;-92
2023/10/11 10:47:21;;;;;;;10.27;3.20;;;;;;;;;;5054034;28;20076;-89
2023/10/11 10:49:50;;;;;;;11.20;3.30;;;;;;;;;;5054402;28;20467;-90
2023/10/11 10:52:29;;;;;;;14.68;4.00;;;;;;;;;;5053078;28;20029;-90
2023/10/11 10:55:01;;;;;;;9.05;3.50;;;;;;;;;;5053309;28;20021;-89
2023/10/11 10:57:27;;;;;;;8.50;3.65;;;;;;;;;;5053531;28;20128;-90
2023/10/11 10:59:54;;;;;;;9.98;3.72;;;;;;;;;;5052999;28;20029;-89
2023/10/11 11:02:19;;;;;;;10.82;3.65;;;;;;;;;;5053906;28;20025;-86
2023/10/11 11:04:45;;;;;;;10.90;3.50;;;;;;;;;;5054166;28;20044;-86
2023/10/11 11:07:22;;;;;;;13.05;3.75;;;;;;;;;;5053579;28;20379;-86
2023/10/11 11:09:49;;;;;;;16.35;3.63;;;;;;;;;;5053850;28;20036;-86
2023/10/11 11:12:16;;;;;;;8.68;3.25;;;;;;;;;;5052244;28;20025;-86
2023/10/11 11:14:56;;;;;;;11.48;4.03;;;;;;;;;;5052454;28;20029;-85
2023/10/11 11:17:46;;;;;;;9.23;3.30;;;;;;;;;;5053703;28;20048;-86
2023/10/11 11:20:13;;;;;;;10.65;3.95;;;;;;;;;;5053871;28;20032;-86
2023/10/11 11:22:45;;;;;;;11.25;4.03;;;;;;;;;;5053348;28;20032;-86
2023/10/11 11:28:17;;;;;;;14.18;4.25;;;;;;;;;;5053738;28;20053;-86
2023/10/11 11:30:52;;;;;;;9.95;3.75;;;;;;;;;;5052146;28;20025;-86
2023/10/11 11:33:29;;;;;;;9.77;3.85;;;;;;;;;;5053533;28;20036;-88
2023/10/11 11:35:55;;;;;;;9.25;3.95;;;;;;;;;;5053573;28;20025;-86
2023/10/11 11:38:21;;;;;;;10.98;3.58;;;;;;;;;;5052209;28;20029;-88
2023/10/11 11:40:48;;;;;;;11.95;3.70;;;;;;;;;;5054266;28;20036;-88
2023/10/11 11:43:19;;;;;;;10.60;3.42;;;;;;;;;;5056437;28;20052;-90
2023/10/11 11:45:47;;;;;;;10.85;4.45;;;;;;;;;;5059522;28;20049;-87
2023/10/11 18:12:50;;;;;;;20.15;10.95;;;;;;;;;;5043824;28;20487;-88
2023/10/11 18:15:17;;;;;;;16.95;9.90;;;;;;;;;;5054221;28;20091;-85
2023/10/11 18:17:44;;;;;;;19.25;10.10;;;;;;;;;;5055301;28;20025;-86
2023/10/11 18:20:11;;;;;;;21.88;10.05;;;;;;;;;;5053908;28;20021;-87
2023/10/11 18:22:40;;;;;;;17.55;10.00;;;;;;;;;;5055076;28;20542;-86
2023/10/11 18:25:13;;;;;;;19.23;10.40;;;;;;;;;;5055522;28;20029;-87
2023/10/11 18:27:58;;;;;;;17.17;9.55;;;;;;;;;;5055711;28;20459;-86
2023/10/11 18:30:24;;;;;;;16.90;10.52;;;;;;;;;;5046681;28;20108;-87
2023/10/11 18:32:50;;;;;;;18.25;10.70;;;;;;;;;;5042913;28;20483;-86
2023/10/11 18:35:17;;;;;;;18.67;11.27;;;;;;;;;;5042025;28;20117;-86
2023/10/11 18:37:43;;;;;;;17.60;10.40;;;;;;;;;;5034703;28;20498;-86
2023/10/11 18:40:22;;;;;;;15.48;10.07;;;;;;;;;;5051586;28;20029;-85
2023/10/11 18:42:54;;;;;;;18.63;10.30;;;;;;;;;;5054394;28;20490;-88
2023/10/11 18:45:21;;;;;;;16.55;9.65;;;;;;;;;;5054598;28;20068;-86
2023/10/11 18:47:53;;;;;;;19.00;10.63;;;;;;;;;;5044344;28;20040;-86
2023/10/11 18:50:23;;;;;;;20.00;10.77;;;;;;;;;;5034201;28;20536;-87
2023/10/11 18:52:50;;;;;;;24.08;10.73;;;;;;;;;;5032459;28;20037;-87
2023/10/11 18:55:17;;;;;;;18.58;11.48;;;;;;;;;;5035092;28;20037;-86
2023/10/11 18:57:44;;;;;;;24.45;11.65;;;;;;;;;;5054098;28;20044;-86
2023/10/11 19:00:11;;;;;;;16.33;10.18;;;;;;;;;;5053996;28;20029;-87
2023/10/11 19:02:47;;;;;;;17.35;10.55;;;;;;;;;;5053781;28;20430;-86
2023/10/11 19:05:20;;;;;;;20.67;12.73;;;;;;;;;;5041194;28;20437;-86
2023/10/11 19:07:58;;;;;;;26.40;14.85;;;;;;;;;;5036512;28;20388;-85
2023/10/11 19:10:30;;;;;;;17.52;10.45;;;;;;;;;;5033222;28;20033;-83
2023/10/11 19:12:57;;;;;;;17.02;9.55;;;;;;;;;;5037623;28;20049;-81
2023/10/11 19:15:24;;;;;;;16.27;10.68;;;;;;;;;;5041270;28;20029;-92
2023/10/11 19:17:53;;;;;;;20.95;10.30;;;;;;;;;;5044368;28;20029;-93
2023/10/11 19:20:20;;;;;;;21.63;12.70;;;;;;;;;;5046093;28;20041;-90
2023/10/11 19:22:51;;;;;;;19.75;10.82;;;;;;;;;;5044307;28;20048;-91
2023/10/11 19:25:20;;;;;;;13.63;10.05;;;;;;;;;;5043359;28;20119;-90
2023/10/11 19:27:48;;;;;;;18.70;9.95;;;;;;;;;;5044872;28;20048;-87
2023/10/11 19:30:16;;;;;;;18.48;10.82;;;;;;;;;;5062468;28;20031;-90
2023/10/11 19:32:52;;;;;;;23.58;10.77;;;;;;;;;;5070023;28;20064;-94
2023/10/11 19:35:24;;;;;;;19.85;10.57;;;;;;;;;;5090688;22;20033;-90
2023/10/11 19:38:21;;;;;;;18.67;10.55;;;;;;;;;;5083091;22;20053;-96
2023/10/11 19:41:00;;;;;;;15.65;10.10;;;;;;;;;;5081605;22;20067;-92
2023/10/11 19:43:28;;;;;;;18.92;9.95;;;;;;;;;;5073435;28;20029;-96
2023/10/11 19:45:54;;;;;;;16.50;10.40;;;;;;;;;;5055079;28;20029;-91
2023/10/11 19:48:19;;;;;;;17.38;10.20;;;;;;;;;;5058705;28;20050;-89
2023/10/11 19:50:47;;;;;;;17.90;9.88;;;;;;;;;;5057397;28;20033;-91
2023/10/11 19:53:13;;;;;;;23.48;10.57;;;;;;;;;;5058540;28;20021;-91
2023/10/11 19:55:39;;;;;;;18.00;9.95;;;;;;;;;;5059213;28;20467;-91
2023/10/11 19:58:05;;;;;;;17.08;9.70;;;;;;;;;;5058793;28;20017;-91
2023/10/11 20:00:33;;;;;;;17.00;10.00;;;;;;;;;;5060424;28;20096;-92
2023/10/11 20:03:01;;;;;;;17.35;10.70;;;;;;;;;;5058058;28;20025;-93
2023/10/11 20:05:28;;;;;;;22.40;10.30;;;;;;;;;;5058749;28;20467;-91
2023/10/11 20:07:53;;;;;;;17.58;10.52;;;;;;;;;;5059028;28;20025;-92
2023/10/11 20:10:19;;;;;;;18.95;9.32;;;;;;;;;;5058904;28;20021;-90
2023/10/11 20:12:51;;;;;;;19.35;10.18;;;;;;;;;;5059618;28;20029;-92
2023/10/11 20:15:18;;;;;;;15.63;10.02;;;;;;;;;;5058594;28;20374;-92
2023/10/11 20:17:52;;;;;;;17.90;10.85;;;;;;;;;;5060030;28;20020;-95
2023/10/11 20:20:21;;;;;;;19.33;9.95;;;;;;;;;;5059789;28;20056;-90
2023/10/11 20:22:49;;;;;;;15.80;10.70;;;;;;;;;;5057660;28;20506;-90
2023/10/11 20:25:15;;;;;;;21.13;10.13;;;;;;;;;;5058017;28;20040;-92
2023/10/11 20:27:45;;;;;;;17.08;10.30;;;;;;;;;;5059069;28;20092;-92
2023/10/11 20:30:15;;;;;;;17.17;10.57;;;;;;;;;;5057698;28;20028;-92
2023/10/11 20:32:52;;;;;;;18.63;9.95;;;;;;;;;;5057928;28;20025;-93
2023/10/11 20:35:25;;;;;;;18.10;9.65;;;;;;;;;;5057887;28;20025;-91
2023/10/11 20:38:08;;;;;;;16.60;9.93;;;;;;;;;;5057354;28;20028;-92
2023/10/11 20:40:43;;;;;;;17.20;10.10;;;;;;;;;;5057243;28;20045;-91
2023/10/11 20:43:09;;;;;;;16.92;9.88;;;;;;;;;;5057418;28;20384;-91
2023/10/11 20:45:37;;;;;;;15.50;9.98;;;;;;;;;;5057613;28;20025;-91
2023/10/11 20:48:04;;;;;;;19.70;10.77;;;;;;;;;;5059082;28;20025;-91
2023/10/11 20:50:33;;;;;;;18.48;9.60;;;;;;;;;;5057619;28;20082;-91
2023/10/11 20:53:02;;;;;;;13.30;10.07;;;;;;;;;;5057294;28;20029;-90
2023/10/11 20:55:30;;;;;;;20.23;10.95;;;;;;;;;;5058332;28;20081;-90
2023/10/11 20:58:09;;;;;;;17.00;10.88;;;;;;;;;;5056577;28;20124;-90
2023/10/11 21:00:42;;;;;;;13.52;10.35;;;;;;;;;;5056210;28;20099;-89
2023/10/11 21:03:11;;;;;;;20.63;10.38;;;;;;;;;;5056208;28;20029;-90
2023/10/11 21:05:47;;;;;;;19.55;10.30;;;;;;;;;;5056369;28;20025;-89
2023/10/11 21:08:14;;;;;;;15.85;10.00;;;;;;;;;;5041671;28;20040;-89
2023/10/11 21:10:47;;;;;;;20.90;11.02;;;;;;;;;;5056615;28;20021;-89
2023/10/11 21:13:18;;;;;;;19.63;11.73;;;;;;;;;;5047337;28;20083;-88
2023/10/11 21:15:46;;;;;;;19.70;11.85;;;;;;;;;;5036739;28;20028;-91
2023/10/11 21:18:11;;;;;;;28.88;14.80;;;;;;;;;;5037508;28;20037;-90
2023/10/11 21:20:42;;;;;;;19.90;12.75;;;;;;;;;;5037290;28;20075;-89
2023/10/11 21:23:09;;;;;;;21.00;11.90;;;;;;;;;;5035873;28;20417;-89
2023/10/11 21:25:36;;;;;;;20.85;12.55;;;;;;;;;;5035893;28;20030;-89
2023/10/11 21:28:05;;;;;;;21.40;11.07;;;;;;;;;;5035554;28;20030;-88
2023/10/11 21:30:31;;;;;;;20.02;12.95;;;;;;;;;;5035229;28;20032;-88
2023/10/11 21:33:01;;;;;;;18.90;12.27;;;;;;;;;;5035601;28;20117;-88
2023/10/11 21:35:26;;;;;;;15.25;10.38;;;;;;;;;;5036639;28;20045;-89
2023/10/11 21:37:55;;;;;;;18.52;11.43;;;;;;;;;;5035721;28;20072;-90
2023/10/11 21:40:24;;;;;;;22.20;12.13;;;;;;;;;;5034949;28;20041;-89
2023/10/11 21:42:54;;;;;;;20.77;12.82;;;;;;;;;;5035340;28;20033;-91
2023/10/11 21:45:26;;;;;;;22.13;12.65;;;;;;;;;;5035231;28;20037;-89
2023/10/11 21:47:52;;;;;;;21.92;13.13;;;;;;;;;;5035420;28;20029;-89
2023/10/11 21:50:18;;;;;;;21.33;12.63;;;;;;;;;;5036440;28;20033;-90
2023/10/11 21:52:47;;;;;;;19.30;12.07;;;;;;;;;;5035158;28;20498;-90
2023/10/11 21:55:15;;;;;;;23.05;12.55;;;;;;;;;;5035097;28;20089;-90
2023/10/11 21:57:45;;;;;;;20.77;12.23;;;;;;;;;;5034942;28;20048;-91
2023/10/11 22:03:03;;;;;;;18.92;11.27;;;;;;;;;;5020290;28;20387;-91
2023/10/11 22:05:29;;;;;;;23.65;11.55;;;;;;;;;;5036487;28;20029;-90
2023/10/11 22:07:58;;;;;;;23.70;12.85;;;;;;;;;;5036059;28;20527;-91
2023/10/11 22:10:28;;;;;;;21.13;11.75;;;;;;;;;;5034778;28;20025;-90
2023/10/11 22:12:54;;;;;;;19.38;10.82;;;;;;;;;;5034715;28;20040;-91
2023/10/11 22:15:22;;;;;;;18.80;12.02;;;;;;;;;;5035591;28;20030;-90
2023/10/11 22:17:56;;;;;;;20.00;11.65;;;;;;;;;;5034588;28;20022;-91
2023/10/11 22:20:26;;;;;;;25.50;13.32;;;;;;;;;;5034505;28;20029;-91
2023/10/11 22:22:56;;;;;;;18.48;11.98;;;;;;;;;;5034537;28;20045;-92
2023/10/11 22:25:24;;;;;;;21.35;11.15;;;;;;;;;;5035669;28;20026;-92
2023/10/11 22:27:52;;;;;;;23.15;13.20;;;;;;;;;;5033779;28;20026;-91
2023/10/11 22:30:20;;;;;;;21.77;12.50;;;;;;;;;;5034499;28;20074;-91
2023/10/11 22:32:47;;;;;;;19.95;11.57;;;;;;;;;;5018543;28;20041;-91
2023/10/11 22:35:12;;;;;;;23.30;12.23;;;;;;;;;;5035403;28;20060;-90
2023/10/11 22:37:38;;;;;;;22.90;11.98;;;;;;;;;;5034874;28;20064;-90
2023/10/11 22:40:07;;;;;;;21.85;12.38;;;;;;;;;;5035289;28;20068;-91
2023/10/11 22:42:32;;;;;;;20.57;12.70;;;;;;;;;;5034005;28;20037;-91
2023/10/11 22:44:58;;;;;;;21.75;12.27;;;;;;;;;;5034167;28;20033;-91
2023/10/11 22:47:24;;;;;;;20.20;12.57;;;;;;;;;;5034276;28;20029;-91
2023/10/11 22:49:49;;;;;;;22.35;11.82;;;;;;;;;;5034283;28;20025;-91
2023/10/11 22:52:15;;;;;;;23.08;13.25;;;;;;;;;;5033978;28;20468;-90
2023/10/11 22:54:41;;;;;;;21.23;11.77;;;;;;;;;;5034377;28;20462;-90
2023/10/11 22:57:10;;;;;;;18.85;11.77;;;;;;;;;;5034935;28;20033;-90
2023/10/11 23:02:13;;;;;;;18.90;12.40;;;;;;;;;;5805444;23;20049;-88
